Time;durP1;ratioP1;P1;durP2;ratioP2;P2;SDS_P1;SDS_P2;PMS_P1;PMS_P2;Temp;Humidity;BMP_temperature;BMP_pressure;BME280_temperature;BME280_humidity;BME280_pressure;Samples;Min_cycle;Max_cycle;Signal;HPM_P1;HPM_P2
2022/01/23 00:01:43;;;;;;;6.72;1.65;;;;;;;;;;5008619;28;20235;-29
2022/01/23 00:04:10;;;;;;;15.05;1.80;;;;;;;;;;5014948;28;20223;-27
2022/01/23 00:06:37;;;;;;;8.27;2.10;;;;;;;;;;5002786;28;21055;-29
2022/01/23 00:09:04;;;;;;;7.53;1.63;;;;;;;;;;4995714;28;20802;-29
2022/01/23 00:11:35;;;;;;;5.43;1.70;;;;;;;;;;4995454;28;20243;-28
2022/01/23 00:19:37;;;;;;;8.13;1.38;;;;;;;;;;4996481;28;20727;-29
2022/01/23 00:22:04;;;;;;;5.35;1.60;;;;;;;;;;4996461;28;20793;-27
2022/01/23 00:30:21;;;;;;;2.78;1.27;;;;;;;;;;4996971;28;20239;-30
2022/01/23 00:32:48;;;;;;;5.30;1.30;;;;;;;;;;4976911;28;20233;-29
2022/01/23 00:35:15;;;;;;;4.28;1.70;;;;;;;;;;4976630;28;20220;-29
2022/01/23 00:37:42;;;;;;;5.60;1.40;;;;;;;;;;4979942;28;20260;-29
2022/01/23 00:40:09;;;;;;;3.92;1.60;;;;;;;;;;4995458;28;20235;-29
2022/01/23 00:42:36;;;;;;;4.97;1.27;;;;;;;;;;4997031;28;20236;-29
2022/01/23 00:45:26;;;;;;;3.72;1.42;;;;;;;;;;4996465;28;20230;-28
2022/01/23 00:47:56;;;;;;;4.28;1.20;;;;;;;;;;5016166;28;20242;-29
2022/01/23 00:50:22;;;;;;;7.68;1.65;;;;;;;;;;5004860;28;20989;-28
2022/01/23 00:52:49;;;;;;;7.38;1.30;;;;;;;;;;4996777;28;20224;-29
2022/01/23 00:55:16;;;;;;;6.45;1.42;;;;;;;;;;4996371;28;20225;-28
2022/01/23 00:57:43;;;;;;;3.03;1.40;;;;;;;;;;4995714;28;20228;-30
2022/01/23 01:00:10;;;;;;;3.72;1.17;;;;;;;;;;4996315;28;20232;-30
2022/01/23 01:02:37;;;;;;;6.80;1.15;;;;;;;;;;4976258;28;20251;-29
2022/01/23 01:05:04;;;;;;;1.75;1.08;;;;;;;;;;5001543;28;20236;-27
2022/01/23 01:07:32;;;;;;;3.55;1.30;;;;;;;;;;4994612;28;20263;-28
2022/01/23 01:10:05;;;;;;;3.13;1.40;;;;;;;;;;4994955;28;20333;-29
2022/01/23 01:12:40;;;;;;;2.88;1.10;;;;;;;;;;4994678;28;20232;-29
2022/01/23 01:15:27;;;;;;;3.95;1.23;;;;;;;;;;4995695;28;20228;-29
2022/01/23 01:31:36;;;;;;;1.73;1.02;;;;;;;;;;5006783;28;20262;-28
2022/01/23 01:34:08;;;;;;;3.03;1.08;;;;;;;;;;5015186;28;20256;-28
2022/01/23 01:36:47;;;;;;;2.40;1.25;;;;;;;;;;5002373;28;20236;-28
2022/01/23 01:39:14;;;;;;;2.38;0.85;;;;;;;;;;4996000;28;20226;-28
2022/01/23 01:41:41;;;;;;;1.90;1.20;;;;;;;;;;4995699;28;20232;-30
2022/01/23 01:44:08;;;;;;;3.42;1.17;;;;;;;;;;4995869;28;20228;-28
2022/01/23 01:46:35;;;;;;;2.38;1.00;;;;;;;;;;5003629;28;20255;-28
2022/01/23 01:49:02;;;;;;;2.70;1.10;;;;;;;;;;4995794;28;20240;-28
2022/01/23 01:51:31;;;;;;;2.25;1.20;;;;;;;;;;4996201;28;20582;-29
2022/01/23 01:54:06;;;;;;;1.40;1.00;;;;;;;;;;4995739;28;21130;-28
2022/01/23 01:56:40;;;;;;;2.75;0.98;;;;;;;;;;4995847;28;20981;-28
2022/01/23 02:00:11;;;;;;;2.45;1.10;;;;;;;;;;4995059;28;20234;-27
2022/01/23 02:09:56;;;;;;;2.08;1.27;;;;;;;;;;5003105;28;20244;-28
2022/01/23 02:12:59;;;;;;;1.38;1.00;;;;;;;;;;4999213;28;20224;-28
2022/01/23 02:51:26;;;;;;;3.03;0.90;;;;;;;;;;5018975;28;20211;-29
2022/01/23 02:56:47;;;;;;;1.85;1.00;;;;;;;;;;4987195;28;20232;-29
2022/01/23 03:02:01;;;;;;;1.55;0.80;;;;;;;;;;5012042;28;20228;-29
2022/01/23 03:04:28;;;;;;;1.30;1.00;;;;;;;;;;5006246;28;20242;-28
2022/01/23 03:15:04;;;;;;;1.10;0.90;;;;;;;;;;4996972;28;20236;-28
2022/01/23 03:33:35;;;;;;;1.33;1.13;;;;;;;;;;4998067;28;20224;-29
2022/01/23 03:36:02;;;;;;;2.22;1.10;;;;;;;;;;4998657;28;20228;-28
2022/01/23 03:38:29;;;;;;;1.10;1.00;;;;;;;;;;4997673;28;20238;-28
2022/01/23 03:40:56;;;;;;;1.30;1.00;;;;;;;;;;4998031;28;20229;-29
2022/01/23 03:43:29;;;;;;;1.45;1.00;;;;;;;;;;4998634;28;20613;-28
2022/01/23 03:51:14;;;;;;;1.45;1.20;;;;;;;;;;4997766;28;20315;-28
2022/01/23 03:53:41;;;;;;;3.38;1.10;;;;;;;;;;4997762;28;20352;-29
2022/01/23 03:56:08;;;;;;;4.50;1.20;;;;;;;;;;4997576;28;20228;-29
2022/01/23 03:58:35;;;;;;;1.30;1.05;;;;;;;;;;4996883;28;20232;-30
2022/01/23 04:01:02;;;;;;;2.00;1.00;;;;;;;;;;5006068;28;20245;-28
2022/01/23 04:03:31;;;;;;;2.00;1.13;;;;;;;;;;5018216;28;20219;-28
2022/01/23 04:05:58;;;;;;;1.65;1.17;;;;;;;;;;5017337;28;20240;-29
2022/01/23 04:08:25;;;;;;;2.95;1.38;;;;;;;;;;5017372;28;20234;-29
2022/01/23 04:10:52;;;;;;;1.73;1.10;;;;;;;;;;5002695;28;20806;-30
2022/01/23 04:13:27;;;;;;;1.63;1.13;;;;;;;;;;4998022;28;20204;-30
2022/01/23 04:16:12;;;;;;;1.50;1.10;;;;;;;;;;5004523;28;20254;-29
2022/01/23 04:31:38;;;;;;;2.78;1.30;;;;;;;;;;5007531;28;20335;-28
2022/01/23 04:33:10;;;;;;;2.50;1.52;;;;;;;;;;5005196;28;20247;-28
2022/01/23 04:46:57;;;;;;;2.58;1.88;;;;;;;;;;5007058;28;20228;-28
2022/01/23 04:59:33;;;;;;;2.35;1.90;;;;;;;;;;5016797;28;20239;-28
2022/01/23 05:00:10;;;;;;;3.60;2.08;;;;;;;;;;4997730;28;20307;-30
2022/01/23 05:05:04;;;;;;;3.42;2.17;;;;;;;;;;5009062;28;21126;-30
2022/01/23 05:07:31;;;;;;;3.25;2.33;;;;;;;;;;4997285;28;20230;-28
2022/01/23 05:09:58;;;;;;;3.83;2.45;;;;;;;;;;4997593;28;20243;-30
2022/01/23 05:12:30;;;;;;;3.03;2.20;;;;;;;;;;4997241;28;20239;-28
2022/01/23 05:14:57;;;;;;;4.28;2.85;;;;;;;;;;4997938;28;20235;-29
2022/01/23 05:17:24;;;;;;;3.88;2.95;;;;;;;;;;4997279;28;20235;-28
2022/01/23 05:19:50;;;;;;;3.08;2.58;;;;;;;;;;4996921;28;20235;-29
2022/01/23 05:22:42;;;;;;;4.28;2.80;;;;;;;;;;4997842;28;20989;-29
2022/01/23 05:25:17;;;;;;;3.55;2.67;;;;;;;;;;4996068;28;20336;-27
2022/01/23 05:27:45;;;;;;;4.20;3.22;;;;;;;;;;4996375;28;20224;-28
2022/01/23 05:30:12;;;;;;;6.15;3.17;;;;;;;;;;4997407;28;20244;-29
2022/01/23 05:32:41;;;;;;;5.10;3.25;;;;;;;;;;5016564;28;20236;-29
2022/01/23 05:35:08;;;;;;;3.83;2.67;;;;;;;;;;5009468;28;20224;-28
2022/01/23 05:37:36;;;;;;;3.47;3.08;;;;;;;;;;4996260;28;21079;-30
2022/01/23 05:40:03;;;;;;;5.22;3.38;;;;;;;;;;4997101;28;20232;-28
2022/01/23 05:42:30;;;;;;;5.00;3.03;;;;;;;;;;4999888;28;20232;-29
2022/01/23 05:44:57;;;;;;;3.70;3.00;;;;;;;;;;5000328;28;20231;-28
2022/01/23 05:47:24;;;;;;;2.92;2.63;;;;;;;;;;5018859;28;20235;-28
2022/01/23 05:49:51;;;;;;;3.58;3.28;;;;;;;;;;5003856;28;20244;-28
2022/01/23 05:52:18;;;;;;;3.25;2.90;;;;;;;;;;4999959;28;21035;-28
2022/01/23 05:54:45;;;;;;;3.55;2.95;;;;;;;;;;4999815;28;20220;-29
2022/01/23 05:57:12;;;;;;;3.33;2.90;;;;;;;;;;5000034;28;20220;-28
2022/01/23 05:59:39;;;;;;;4.30;3.55;;;;;;;;;;4998779;28;20231;-29
2022/01/23 06:02:06;;;;;;;5.28;3.63;;;;;;;;;;5015815;28;20244;-29
2022/01/23 06:04:33;;;;;;;3.78;3.30;;;;;;;;;;5018739;28;20241;-28
2022/01/23 06:07:00;;;;;;;5.32;3.35;;;;;;;;;;5019000;28;20204;-28
2022/01/23 06:09:27;;;;;;;4.68;3.63;;;;;;;;;;5018718;28;20242;-28
2022/01/23 06:11:54;;;;;;;3.90;3.05;;;;;;;;;;5003142;28;20236;-28
2022/01/23 06:14:21;;;;;;;3.92;3.20;;;;;;;;;;4999394;28;20238;-29
2022/01/23 06:16:48;;;;;;;3.85;3.20;;;;;;;;;;5013039;28;20311;-28
2022/01/23 06:19:15;;;;;;;3.83;3.42;;;;;;;;;;5017898;28;20231;-27
2022/01/23 06:21:42;;;;;;;5.70;3.72;;;;;;;;;;5012210;28;20336;-28
2022/01/23 06:24:14;;;;;;;5.38;3.83;;;;;;;;;;4999013;28;20623;-28
2022/01/23 06:26:42;;;;;;;4.00;3.60;;;;;;;;;;4998979;28;20228;-27
2022/01/23 06:29:09;;;;;;;4.03;3.60;;;;;;;;;;4998200;28;21119;-29
2022/01/23 06:31:36;;;;;;;4.20;3.65;;;;;;;;;;5011190;28;20262;-28
2022/01/23 06:34:05;;;;;;;5.35;3.72;;;;;;;;;;5001550;28;20243;-29
2022/01/23 06:36:32;;;;;;;4.45;3.88;;;;;;;;;;4998303;28;20259;-29
2022/01/23 06:39:00;;;;;;;6.07;4.20;;;;;;;;;;4997942;28;20236;-28
2022/01/23 06:41:26;;;;;;;4.32;3.92;;;;;;;;;;4998209;28;20232;-30
2022/01/23 06:43:53;;;;;;;4.32;3.88;;;;;;;;;;4997912;28;21102;-29
2022/01/23 06:46:20;;;;;;;5.60;4.43;;;;;;;;;;5007965;28;20231;-29
2022/01/23 06:48:48;;;;;;;4.45;4.00;;;;;;;;;;5017545;28;20232;-29
2022/01/23 06:51:15;;;;;;;4.15;3.75;;;;;;;;;;5017807;28;20243;-27
2022/01/23 06:53:41;;;;;;;5.85;3.88;;;;;;;;;;5012141;28;21050;-27
2022/01/23 06:56:08;;;;;;;5.00;3.75;;;;;;;;;;4997983;28;20215;-29
2022/01/23 06:58:35;;;;;;;4.68;3.88;;;;;;;;;;4998045;28;20228;-29
2022/01/23 07:01:07;;;;;;;5.10;3.90;;;;;;;;;;5005519;28;20228;-30
2022/01/23 07:03:34;;;;;;;5.10;4.28;;;;;;;;;;5017258;28;20235;-29
2022/01/23 07:06:01;;;;;;;4.68;3.90;;;;;;;;;;5009254;28;20242;-29
2022/01/23 07:08:28;;;;;;;4.28;3.88;;;;;;;;;;4997931;28;20236;-30
2022/01/23 07:10:55;;;;;;;4.57;3.70;;;;;;;;;;4997764;28;20252;-34
2022/01/23 07:13:22;;;;;;;4.35;3.90;;;;;;;;;;4997594;28;20223;-29
2022/01/23 07:15:49;;;;;;;4.57;4.15;;;;;;;;;;4996764;28;20243;-30
2022/01/23 07:18:18;;;;;;;4.68;3.95;;;;;;;;;;4997396;28;20264;-29
2022/01/23 07:20:45;;;;;;;4.53;4.13;;;;;;;;;;4997454;28;20228;-27
2022/01/23 07:23:12;;;;;;;5.10;4.05;;;;;;;;;;4997457;28;20707;-29
2022/01/23 07:25:39;;;;;;;4.65;4.20;;;;;;;;;;4997452;28;20228;-29
2022/01/23 07:28:11;;;;;;;4.50;4.03;;;;;;;;;;4988972;28;20236;-29
2022/01/23 07:30:51;;;;;;;5.80;4.55;;;;;;;;;;4987092;28;20292;-29
2022/01/23 07:33:18;;;;;;;5.45;4.60;;;;;;;;;;5017145;28;20237;-30
2022/01/23 07:35:45;;;;;;;5.22;4.32;;;;;;;;;;5017289;28;20219;-29
2022/01/23 07:38:16;;;;;;;4.93;3.83;;;;;;;;;;5015895;28;20227;-28
2022/01/23 07:40:43;;;;;;;4.93;4.43;;;;;;;;;;4997306;28;20235;-29
2022/01/23 07:43:10;;;;;;;5.80;4.32;;;;;;;;;;4993989;28;20246;-29
2022/01/23 07:45:37;;;;;;;4.72;4.20;;;;;;;;;;5001866;28;20223;-29
2022/01/23 07:48:04;;;;;;;4.38;3.97;;;;;;;;;;5016776;28;20242;-28
2022/01/23 07:50:31;;;;;;;5.95;4.55;;;;;;;;;;5004332;28;20244;-32
2022/01/23 07:52:58;;;;;;;4.40;3.95;;;;;;;;;;4996908;28;20228;-29
2022/01/23 07:55:25;;;;;;;4.25;3.85;;;;;;;;;;4997870;28;20228;-35
2022/01/23 07:57:53;;;;;;;4.70;4.20;;;;;;;;;;4997404;28;20227;-31
2022/01/23 08:00:22;;;;;;;4.85;4.45;;;;;;;;;;4997204;28;20235;-32
2022/01/23 08:02:49;;;;;;;4.90;4.10;;;;;;;;;;4997224;28;20236;-30
2022/01/23 08:05:16;;;;;;;4.57;4.07;;;;;;;;;;4996042;28;20706;-31
2022/01/23 08:07:43;;;;;;;5.82;4.47;;;;;;;;;;4996961;28;20220;-34
2022/01/23 08:10:10;;;;;;;4.70;4.30;;;;;;;;;;4997104;28;20274;-30
2022/01/23 08:12:39;;;;;;;6.03;4.10;;;;;;;;;;4997141;28;21154;-32
2022/01/23 08:15:05;;;;;;;5.13;4.63;;;;;;;;;;4997240;28;20287;-34
2022/01/23 08:17:32;;;;;;;5.60;4.82;;;;;;;;;;5015892;28;21037;-33
2022/01/23 08:20:00;;;;;;;4.95;4.13;;;;;;;;;;5016895;28;20231;-30
2022/01/23 08:22:27;;;;;;;5.95;4.60;;;;;;;;;;5013647;28;21509;-30
2022/01/23 08:24:54;;;;;;;5.05;4.55;;;;;;;;;;4998203;28;20721;-27
2022/01/23 08:27:21;;;;;;;7.85;4.82;;;;;;;;;;4999266;28;20238;-31
2022/01/23 08:29:48;;;;;;;9.07;4.75;;;;;;;;;;4999186;28;20236;-29
2022/01/23 08:32:15;;;;;;;7.18;4.90;;;;;;;;;;4997907;28;20267;-32
2022/01/23 08:34:42;;;;;;;8.18;4.68;;;;;;;;;;4988861;28;20238;-33
2022/01/23 08:37:09;;;;;;;9.18;4.70;;;;;;;;;;4977167;28;20229;-32
2022/01/23 08:39:36;;;;;;;11.10;4.70;;;;;;;;;;4978097;28;20231;-31
2022/01/23 08:42:03;;;;;;;6.20;4.50;;;;;;;;;;4991733;28;20298;-31
2022/01/23 08:44:31;;;;;;;6.15;4.80;;;;;;;;;;4996695;28;20228;-29
2022/01/23 08:46:58;;;;;;;12.70;4.70;;;;;;;;;;5012170;28;20243;-31
2022/01/23 08:49:25;;;;;;;8.98;4.78;;;;;;;;;;5010228;28;20232;-31
2022/01/23 08:51:52;;;;;;;5.13;4.45;;;;;;;;;;4997210;28;20228;-36
2022/01/23 08:54:19;;;;;;;7.72;5.50;;;;;;;;;;4991935;28;20228;-32
2022/01/23 08:56:46;;;;;;;12.45;5.93;;;;;;;;;;4996438;28;20431;-35
2022/01/23 08:59:13;;;;;;;15.85;5.43;;;;;;;;;;4997433;28;21162;-33
2022/01/23 09:01:40;;;;;;;13.35;5.18;;;;;;;;;;4997851;28;21053;-35
2022/01/23 09:04:07;;;;;;;8.35;4.95;;;;;;;;;;5001062;28;20277;-31
2022/01/23 09:06:34;;;;;;;8.95;5.78;;;;;;;;;;4997567;28;20240;-30
2022/01/23 09:09:04;;;;;;;14.30;5.80;;;;;;;;;;4997575;28;20371;-30
2022/01/23 09:14:07;;;;;;;10.10;6.32;;;;;;;;;;4994951;28;20224;-30
2022/01/23 09:16:34;;;;;;;10.50;5.53;;;;;;;;;;5005642;28;21194;-28
2022/01/23 09:19:01;;;;;;;9.00;5.50;;;;;;;;;;4985972;28;20239;-30
2022/01/23 09:21:28;;;;;;;8.00;4.97;;;;;;;;;;4997456;28;20236;-28
2022/01/23 09:23:55;;;;;;;7.93;4.80;;;;;;;;;;4993389;28;20236;-31
2022/01/23 09:26:23;;;;;;;7.68;4.90;;;;;;;;;;4994725;28;20235;-30
2022/01/23 09:28:52;;;;;;;5.85;4.72;;;;;;;;;;4999183;28;20231;-29
2022/01/23 09:31:45;;;;;;;10.23;4.50;;;;;;;;;;4995129;28;20315;-29
2022/01/23 09:34:12;;;;;;;8.05;4.97;;;;;;;;;;5002348;28;20796;-30
2022/01/23 09:36:39;;;;;;;8.80;4.88;;;;;;;;;;5004349;28;20235;-30
2022/01/23 09:39:10;;;;;;;8.27;4.80;;;;;;;;;;4984069;28;20259;-31
2022/01/23 09:41:56;;;;;;;8.02;5.28;;;;;;;;;;4987100;28;20424;-29
2022/01/23 09:44:23;;;;;;;9.70;5.28;;;;;;;;;;4989066;28;21139;-34
2022/01/23 09:46:50;;;;;;;7.35;5.43;;;;;;;;;;4994192;28;20243;-30
2022/01/23 09:49:17;;;;;;;7.53;5.47;;;;;;;;;;4994836;28;20236;-41
2022/01/23 09:51:44;;;;;;;8.77;5.28;;;;;;;;;;4985915;28;20750;-40
2022/01/23 09:54:11;;;;;;;9.48;5.75;;;;;;;;;;4991597;28;20315;-43
2022/01/23 09:56:40;;;;;;;9.00;5.55;;;;;;;;;;4991324;28;20228;-43
2022/01/23 09:59:07;;;;;;;9.45;6.07;;;;;;;;;;4991640;28;20235;-44
2022/01/23 10:01:34;;;;;;;8.60;5.65;;;;;;;;;;4999087;28;20240;-45
2022/01/23 10:04:02;;;;;;;10.45;5.70;;;;;;;;;;4991615;28;20228;-41
2022/01/23 10:06:29;;;;;;;7.95;5.10;;;;;;;;;;4991883;28;20236;-43
2022/01/23 10:08:56;;;;;;;7.68;5.05;;;;;;;;;;4997305;28;20509;-44
2022/01/23 10:11:23;;;;;;;6.85;5.70;;;;;;;;;;5011429;28;20255;-45
2022/01/23 10:13:50;;;;;;;7.63;5.05;;;;;;;;;;4996500;28;20228;-44
2022/01/23 10:16:17;;;;;;;6.20;5.55;;;;;;;;;;5001776;28;20311;-45
2022/01/23 10:18:44;;;;;;;6.63;5.00;;;;;;;;;;5010713;28;20234;-45
2022/01/23 10:21:11;;;;;;;6.85;5.15;;;;;;;;;;4990888;28;20553;-41
2022/01/23 10:23:38;;;;;;;7.05;5.25;;;;;;;;;;4990846;28;20228;-45
2022/01/23 10:26:05;;;;;;;6.53;5.07;;;;;;;;;;4991540;28;20228;-44
2022/01/23 10:28:34;;;;;;;6.10;4.93;;;;;;;;;;4994296;28;20343;-45
2022/01/23 10:31:01;;;;;;;6.25;5.03;;;;;;;;;;5002107;28;20454;-44
2022/01/23 10:33:28;;;;;;;11.20;6.03;;;;;;;;;;5014257;28;20659;-40
2022/01/23 10:35:55;;;;;;;7.97;5.72;;;;;;;;;;4998802;28;20259;-45
2022/01/23 10:38:23;;;;;;;9.02;5.35;;;;;;;;;;4994626;28;20718;-45
2022/01/23 10:40:55;;;;;;;7.10;5.97;;;;;;;;;;4994823;28;20233;-44
2022/01/23 10:48:35;;;;;;;9.02;5.18;;;;;;;;;;4988468;28;20778;-45
2022/01/23 10:51:02;;;;;;;6.47;5.05;;;;;;;;;;4996729;28;20240;-42
2022/01/23 10:53:29;;;;;;;8.15;5.28;;;;;;;;;;4994221;28;20231;-44
2022/01/23 10:55:56;;;;;;;5.43;4.68;;;;;;;;;;4994204;28;20279;-45
2022/01/23 10:58:26;;;;;;;8.25;5.50;;;;;;;;;;4993459;28;20263;-44
2022/01/23 11:00:54;;;;;;;6.28;4.78;;;;;;;;;;4997367;28;20694;-44
2022/01/23 11:03:22;;;;;;;5.72;4.90;;;;;;;;;;4999313;28;20315;-44
2022/01/23 11:05:49;;;;;;;5.63;5.10;;;;;;;;;;4999281;28;20232;-42
2022/01/23 11:08:16;;;;;;;6.60;5.18;;;;;;;;;;4990924;28;20243;-44
2022/01/23 11:10:42;;;;;;;9.48;5.13;;;;;;;;;;4992015;28;20254;-44
2022/01/23 11:18:54;;;;;;;7.93;5.45;;;;;;;;;;4982734;28;20412;-45
2022/01/23 11:21:21;;;;;;;7.00;5.55;;;;;;;;;;4994144;28;20239;-45
2022/01/23 11:24:08;;;;;;;8.10;5.22;;;;;;;;;;4994253;28;20232;-43
2022/01/23 11:26:35;;;;;;;5.80;5.20;;;;;;;;;;4994054;28;20224;-43
2022/01/23 11:29:02;;;;;;;5.70;5.03;;;;;;;;;;4994034;28;20224;-44
2022/01/23 11:31:29;;;;;;;7.32;5.88;;;;;;;;;;5010484;28;20906;-46
2022/01/23 11:33:57;;;;;;;9.88;5.40;;;;;;;;;;5013415;28;20299;-46
2022/01/23 11:36:25;;;;;;;14.05;5.35;;;;;;;;;;5013436;28;20235;-42
2022/01/23 11:38:56;;;;;;;9.88;5.63;;;;;;;;;;5012195;28;20423;-44
2022/01/23 11:55:12;;;;;;;10.65;5.05;;;;;;;;;;4993553;28;20224;-45
2022/01/23 11:57:40;;;;;;;9.00;5.13;;;;;;;;;;4993627;28;20236;-44
2022/01/23 12:00:08;;;;;;;8.57;4.97;;;;;;;;;;4994290;28;20258;-42
2022/01/23 12:02:37;;;;;;;11.75;5.05;;;;;;;;;;5007975;28;20894;-42
2022/01/23 12:05:04;;;;;;;15.13;5.40;;;;;;;;;;4996338;28;20228;-43
2022/01/23 12:07:31;;;;;;;14.07;4.72;;;;;;;;;;4993479;28;20232;-43
2022/01/23 12:09:58;;;;;;;8.95;4.82;;;;;;;;;;4992530;28;20423;-35
2022/01/23 12:12:37;;;;;;;9.05;4.35;;;;;;;;;;4993296;28;20250;-37
2022/01/23 12:17:31;;;;;;;9.60;4.75;;;;;;;;;;5012815;28;20232;-44
2022/01/23 12:19:58;;;;;;;10.87;5.90;;;;;;;;;;4999682;28;20418;-46
2022/01/23 12:22:25;;;;;;;8.95;5.65;;;;;;;;;;4992963;28;20448;-46
2022/01/23 12:24:52;;;;;;;7.10;5.18;;;;;;;;;;4992520;28;20735;-45
2022/01/23 12:27:21;;;;;;;9.23;5.50;;;;;;;;;;4992757;28;20240;-45
2022/01/23 12:29:48;;;;;;;10.60;5.13;;;;;;;;;;4993042;28;20232;-44
2022/01/23 12:32:14;;;;;;;7.70;5.45;;;;;;;;;;5010754;28;20258;-45
2022/01/23 12:34:41;;;;;;;7.63;4.68;;;;;;;;;;5006773;28;20228;-44
2022/01/23 12:37:08;;;;;;;6.00;5.00;;;;;;;;;;4999357;28;20232;-44
2022/01/23 12:39:35;;;;;;;9.88;5.20;;;;;;;;;;4991543;28;20414;-42
2022/01/23 12:42:05;;;;;;;10.07;5.22;;;;;;;;;;4992319;28;20239;-39
2022/01/23 12:44:32;;;;;;;8.68;5.38;;;;;;;;;;4992673;28;20978;-40
2022/01/23 12:46:59;;;;;;;9.32;5.05;;;;;;;;;;5000226;28;20232;-41
2022/01/23 12:49:26;;;;;;;7.53;5.05;;;;;;;;;;4992355;28;20236;-41
2022/01/23 12:51:53;;;;;;;5.70;5.10;;;;;;;;;;4992032;28;20951;-40
2022/01/23 12:54:20;;;;;;;7.55;4.75;;;;;;;;;;4992651;28;20231;-42
2022/01/23 12:56:48;;;;;;;7.82;4.22;;;;;;;;;;4992635;28;20231;-41
2022/01/23 12:59:21;;;;;;;5.10;4.25;;;;;;;;;;4991665;28;20773;-40
2022/01/23 13:01:50;;;;;;;6.22;4.47;;;;;;;;;;5006783;28;20235;-41
2022/01/23 13:04:17;;;;;;;5.13;4.15;;;;;;;;;;5012115;28;20227;-39
2022/01/23 13:06:50;;;;;;;6.20;4.50;;;;;;;;;;4998655;28;20715;-40
2022/01/23 13:12:12;;;;;;;5.53;4.18;;;;;;;;;;4973110;28;20252;-42
2022/01/23 13:14:40;;;;;;;5.32;4.07;;;;;;;;;;4973033;28;20231;-40
2022/01/23 13:17:30;;;;;;;4.90;4.20;;;;;;;;;;5006007;28;20232;-41
2022/01/23 13:31:09;;;;;;;4.60;3.83;;;;;;;;;;4981314;28;20243;-40
2022/01/23 13:33:36;;;;;;;4.55;3.70;;;;;;;;;;4992509;28;20712;-41
2022/01/23 13:36:06;;;;;;;3.85;3.50;;;;;;;;;;4992210;28;20616;-40
2022/01/23 13:38:35;;;;;;;3.95;3.53;;;;;;;;;;4992058;28;20811;-41
2022/01/23 13:41:10;;;;;;;3.67;3.38;;;;;;;;;;4992162;28;20239;-41
2022/01/23 13:50:29;;;;;;;3.90;3.25;;;;;;;;;;4991655;28;20231;-40
2022/01/23 13:58:02;;;;;;;3.97;3.20;;;;;;;;;;4972587;28;20225;-41
2022/01/23 14:00:29;;;;;;;3.80;3.28;;;;;;;;;;4979281;28;20237;-41
2022/01/23 14:02:56;;;;;;;3.30;3.00;;;;;;;;;;5013563;28;20303;-40
2022/01/23 14:05:23;;;;;;;3.55;3.13;;;;;;;;;;4995951;28;20247;-41
2022/01/23 14:07:50;;;;;;;3.80;3.45;;;;;;;;;;4995009;28;20244;-41
2022/01/23 14:10:17;;;;;;;3.63;3.15;;;;;;;;;;4994852;28;20228;-42
2022/01/23 14:12:44;;;;;;;3.13;2.83;;;;;;;;;;4993784;28;20247;-41
2022/01/23 14:15:18;;;;;;;3.30;3.00;;;;;;;;;;4996529;28;20268;-40
2022/01/23 14:17:45;;;;;;;3.33;3.03;;;;;;;;;;5014824;28;20234;-40
2022/01/23 14:20:12;;;;;;;5.13;3.00;;;;;;;;;;5014746;28;20236;-40
2022/01/23 14:22:39;;;;;;;3.42;3.13;;;;;;;;;;5014995;28;20359;-41
2022/01/23 14:25:06;;;;;;;3.55;3.00;;;;;;;;;;5014404;28;20227;-42
2022/01/23 14:27:38;;;;;;;3.38;2.97;;;;;;;;;;4975638;28;20225;-41
2022/01/23 14:30:06;;;;;;;3.40;2.83;;;;;;;;;;4975393;28;20228;-41
2022/01/23 14:32:40;;;;;;;4.00;3.00;;;;;;;;;;4994720;28;21107;-40
2022/01/23 14:35:07;;;;;;;3.17;2.88;;;;;;;;;;4994246;28;20239;-40
2022/01/23 14:37:34;;;;;;;3.47;3.15;;;;;;;;;;4993854;28;20235;-40
2022/01/23 14:40:01;;;;;;;3.22;2.90;;;;;;;;;;4994918;28;20234;-41
2022/01/23 14:42:28;;;;;;;3.45;2.83;;;;;;;;;;4994903;28;20228;-40
2022/01/23 14:44:55;;;;;;;3.78;3.05;;;;;;;;;;4994359;28;20311;-40
2022/01/23 14:47:22;;;;;;;4.03;2.97;;;;;;;;;;4993702;28;20248;-42
2022/01/23 14:49:50;;;;;;;4.85;3.20;;;;;;;;;;4994380;28;20239;-40
2022/01/23 14:52:17;;;;;;;3.28;2.97;;;;;;;;;;4994463;28;20236;-39
2022/01/23 14:54:44;;;;;;;4.72;3.70;;;;;;;;;;4994639;28;20238;-40
2022/01/23 14:57:13;;;;;;;5.88;3.45;;;;;;;;;;4992425;28;20569;-39
2022/01/23 14:59:40;;;;;;;4.13;3.72;;;;;;;;;;4992908;28;20290;-37
2022/01/23 15:02:07;;;;;;;4.70;3.60;;;;;;;;;;4995180;28;20255;-35
2022/01/23 15:04:34;;;;;;;4.68;3.40;;;;;;;;;;4991384;28;20299;-37
2022/01/23 15:07:01;;;;;;;4.15;3.67;;;;;;;;;;4992483;28;20239;-36
2022/01/23 15:09:28;;;;;;;3.83;3.40;;;;;;;;;;4993413;28;20232;-36
2022/01/23 15:11:55;;;;;;;5.25;3.40;;;;;;;;;;4991632;28;20244;-38
2022/01/23 15:14:22;;;;;;;5.38;3.20;;;;;;;;;;4990309;28;20691;-36
2022/01/23 15:16:50;;;;;;;8.68;3.35;;;;;;;;;;4995143;28;20235;-34
2022/01/23 15:19:17;;;;;;;3.78;2.85;;;;;;;;;;4993016;28;20283;-36
2022/01/23 15:21:44;;;;;;;6.35;3.03;;;;;;;;;;4997527;28;20244;-36
2022/01/23 15:24:11;;;;;;;4.20;3.17;;;;;;;;;;4990595;28;20386;-36
2022/01/23 15:26:40;;;;;;;8.60;3.30;;;;;;;;;;4996763;28;20450;-45
2022/01/23 15:29:07;;;;;;;4.88;3.03;;;;;;;;;;4991124;28;20239;-46
2022/01/23 15:31:34;;;;;;;8.75;3.67;;;;;;;;;;4990411;28;21217;-42
2022/01/23 15:34:01;;;;;;;6.40;2.95;;;;;;;;;;4992877;28;20455;-45
2022/01/23 15:36:28;;;;;;;3.63;3.00;;;;;;;;;;4991110;28;20228;-45
2022/01/23 15:38:55;;;;;;;5.45;2.85;;;;;;;;;;4991108;28;20236;-45
2022/01/23 15:41:22;;;;;;;5.25;3.10;;;;;;;;;;4989015;28;20232;-44
2022/01/23 15:43:49;;;;;;;9.35;2.95;;;;;;;;;;4990340;28;20506;-45
2022/01/23 15:46:16;;;;;;;5.78;3.10;;;;;;;;;;4990972;28;20717;-44
2022/01/23 15:48:43;;;;;;;4.88;3.25;;;;;;;;;;4992253;28;21001;-45
2022/01/23 15:51:10;;;;;;;6.68;3.00;;;;;;;;;;4990780;28;20244;-40
2022/01/23 15:53:37;;;;;;;6.55;3.00;;;;;;;;;;4994160;28;20818;-44
2022/01/23 15:56:04;;;;;;;5.75;2.95;;;;;;;;;;4991005;28;20737;-44
2022/01/23 15:58:31;;;;;;;5.75;2.90;;;;;;;;;;4993826;28;20223;-44
2022/01/23 16:00:58;;;;;;;5.28;3.17;;;;;;;;;;4990306;28;20262;-44
2022/01/23 16:03:27;;;;;;;3.72;3.10;;;;;;;;;;4992161;28;20286;-46
2022/01/23 16:05:54;;;;;;;5.78;3.10;;;;;;;;;;4993414;28;20700;-46
2022/01/23 16:08:21;;;;;;;6.93;3.40;;;;;;;;;;4988801;28;20240;-46
2022/01/23 16:10:48;;;;;;;6.65;2.90;;;;;;;;;;4990728;28;20240;-46
2022/01/23 16:13:15;;;;;;;5.60;3.15;;;;;;;;;;4988002;28;20250;-46
2022/01/23 16:15:43;;;;;;;5.00;2.80;;;;;;;;;;4989774;28;20239;-46
2022/01/23 16:18:10;;;;;;;7.25;3.33;;;;;;;;;;4988535;28;20743;-45
2022/01/23 16:20:38;;;;;;;7.82;3.53;;;;;;;;;;4989605;28;20232;-46
2022/01/23 16:23:05;;;;;;;7.53;3.58;;;;;;;;;;4987043;28;20243;-46
2022/01/23 16:25:33;;;;;;;5.75;3.05;;;;;;;;;;4994917;28;20236;-45
2022/01/23 16:28:00;;;;;;;6.22;3.33;;;;;;;;;;4990626;28;20231;-45
2022/01/23 16:30:27;;;;;;;14.80;3.65;;;;;;;;;;4990458;28;20430;-45
2022/01/23 16:32:54;;;;;;;7.28;3.95;;;;;;;;;;4992635;28;20244;-47
2022/01/23 16:35:21;;;;;;;11.70;3.97;;;;;;;;;;4991592;28;20259;-45
2022/01/23 16:37:49;;;;;;;10.02;3.50;;;;;;;;;;4994306;28;20240;-46
2022/01/23 16:40:16;;;;;;;5.97;3.75;;;;;;;;;;4991762;28;20232;-45
2022/01/23 16:42:43;;;;;;;14.70;3.45;;;;;;;;;;4993417;28;20232;-45
2022/01/23 16:45:10;;;;;;;4.72;3.60;;;;;;;;;;4990800;28;20231;-42
2022/01/23 16:47:37;;;;;;;9.73;3.65;;;;;;;;;;4988575;28;20243;-45
2022/01/23 16:50:04;;;;;;;13.23;3.70;;;;;;;;;;4989200;28;20236;-44
2022/01/23 16:52:31;;;;;;;4.45;3.45;;;;;;;;;;4988767;28;20248;-43
2022/01/23 16:54:58;;;;;;;9.15;3.42;;;;;;;;;;4990971;28;20235;-45
2022/01/23 16:57:25;;;;;;;6.18;3.33;;;;;;;;;;4987596;28;20628;-45
2022/01/23 16:59:52;;;;;;;6.82;3.20;;;;;;;;;;4991701;28;20236;-45
2022/01/23 17:02:19;;;;;;;5.60;3.50;;;;;;;;;;4989783;28;20232;-45
2022/01/23 17:04:46;;;;;;;5.85;3.10;;;;;;;;;;4990976;28;20625;-46
2022/01/23 17:07:13;;;;;;;5.97;2.85;;;;;;;;;;4989910;28;20519;-44
2022/01/23 17:09:40;;;;;;;5.80;3.35;;;;;;;;;;4990579;28;20283;-45
2022/01/23 17:12:07;;;;;;;4.32;3.30;;;;;;;;;;4991725;28;20248;-46
2022/01/23 17:14:34;;;;;;;4.65;2.72;;;;;;;;;;4989077;28;20326;-45
2022/01/23 17:17:01;;;;;;;7.95;3.25;;;;;;;;;;4991842;28;20258;-43
2022/01/23 17:19:28;;;;;;;6.80;3.45;;;;;;;;;;4987879;28;20247;-46
2022/01/23 17:21:55;;;;;;;5.85;3.30;;;;;;;;;;4989173;28;20236;-46
2022/01/23 17:24:28;;;;;;;4.80;3.30;;;;;;;;;;4988975;28;20326;-43
2022/01/23 17:26:55;;;;;;;4.55;3.65;;;;;;;;;;4989427;28;20302;-46
2022/01/23 17:29:22;;;;;;;11.25;4.95;;;;;;;;;;4991412;28;20227;-44
2022/01/23 17:31:49;;;;;;;8.07;4.45;;;;;;;;;;4982251;28;20239;-45
2022/01/23 17:34:19;;;;;;;8.95;4.03;;;;;;;;;;4980607;28;20335;-44
2022/01/23 17:36:46;;;;;;;8.35;4.10;;;;;;;;;;4988848;28;20502;-45
2022/01/23 17:39:13;;;;;;;8.63;4.53;;;;;;;;;;4993727;28;20235;-44
2022/01/23 17:41:40;;;;;;;8.68;4.10;;;;;;;;;;4991899;28;20240;-44
2022/01/23 17:44:07;;;;;;;8.82;6.18;;;;;;;;;;4991602;28;20240;-44
2022/01/23 17:46:37;;;;;;;11.00;6.78;;;;;;;;;;4986162;28;20234;-46
2022/01/23 17:49:08;;;;;;;12.55;6.20;;;;;;;;;;4983025;28;20235;-44
2022/01/23 17:51:35;;;;;;;10.45;6.70;;;;;;;;;;4987639;28;20515;-45
2022/01/23 17:54:03;;;;;;;10.07;6.50;;;;;;;;;;4984117;28;20252;-42
2022/01/23 17:56:30;;;;;;;12.48;6.47;;;;;;;;;;4988213;28;21029;-47
2022/01/23 17:58:57;;;;;;;10.13;6.15;;;;;;;;;;4990736;28;20999;-38
2022/01/23 18:01:24;;;;;;;8.38;5.90;;;;;;;;;;4991806;28;20442;-41